| time (UTC) | temp C | wind direction | speed KPH | gust KPH | rain 1hr cm | rain 24hr cm | rain mn cm | humidity % | barometer mb |
| 20260906220603 | 32 | 338 | 11.3 | 17.7 | 0.00 | 0.00 | 0.00 | 35 | 1014.7 |
| 20260906215603 | 32 | 338 | 9.7 | 16.1 | 0.00 | 0.00 | 0.00 | 35 | 1015.1 |
| 20260906214603 | 32 | 338 | 9.7 | 14.5 | 0.00 | 0.00 | 0.00 | 34 | 1015.1 |
| 20260906213603 | 31 | 338 | 6.4 | 12.9 | 0.00 | 0.00 | 0.00 | 35 | 1015.3 |
| 20260906212603 | 31 | 338 | 9.7 | 16.1 | 0.00 | 0.00 | 0.00 | 35 | 1015.6 |
| 20260906211603 | 31 | 338 | 12.9 | 20.9 | 0.00 | 0.00 | 0.00 | 34 | 1015.7 |
| 20260906210603 | 31 | 338 | 11.3 | 20.9 | 0.00 | 0.00 | 0.00 | 34 | 1015.8 |
| 20260906205603 | 31 | 338 | 11.3 | 17.7 | 0.00 | 0.00 | 0.00 | 35 | 1015.8 |
| 20260906204623 | 30 | 338 | 9.7 | 14.5 | 0.00 | 0.00 | 0.00 | 36 | 1016.0 |
| 20260906203603 | 30 | 338 | 9.7 | 22.5 | 0.00 | 0.00 | 0.00 | 38 | 1015.9 |
| 20260906202603 | 30 | 0 | 12.9 | 17.7 | 0.00 | 0.00 | 0.00 | 37 | 1016.3 |
| 20260906201603 | 30 | 338 | 6.4 | 14.5 | 0.00 | 0.00 | 0.00 | 37 | 1016.7 |
| 20260906200603 | 30 | 338 | 11.3 | 19.3 | 0.00 | 0.00 | 0.00 | 37 | 1016.8 |
| 20260906195623 | 30 | 338 | 11.3 | 17.7 | 0.00 | 0.00 | 0.00 | 37 | 1016.9 |
| 20260906194623 | 30 | 293 | 4.8 | 17.7 | 0.00 | 0.00 | 0.00 | 40 | 1017.0 |
| 20260906193603 | 29 | 338 | 8.0 | 19.3 | 0.00 | 0.00 | 0.00 | 42 | 1016.7 |
| 20260906192603 | 29 | 338 | 8.0 | 11.3 | 0.00 | 0.00 | 0.00 | 42 | 1017.0 |
| 20260906191603 | 28 | 0 | 8.0 | 16.1 | 0.00 | 0.00 | 0.00 | 42 | 1017.0 |
| 20260906190603 | 28 | 0 | 8.0 | 16.1 | 0.00 | 0.00 | 0.00 | 44 | 1017.1 |
| 20260906185603 | 28 | 0 | 4.8 | 8.0 | 0.00 | 0.00 | 0.00 | 45 | 1017.4 |
| 20260906184603 | 28 | 338 | 6.4 | 12.9 | 0.00 | 0.00 | 0.00 | 46 | 1017.6 |
| 20260906183623 | 27 | 0 | 3.2 | 9.7 | 0.00 | 0.00 | 0.00 | 48 | 1017.5 |
| 20260906182603 | 27 | 0 | 8.0 | 14.5 | 0.00 | 0.00 | 0.00 | 51 | 1017.7 |
| 20260906181603 | 27 | 23 | 3.2 | 9.7 | 0.00 | 0.00 | 0.00 | 52 | 1018.0 |
| 20260906180603 | 26 | 338 | 6.4 | 11.3 | 0.00 | 0.00 | 0.00 | 55 | 1017.8 |
| 20260906175603 | 26 | 315 | 4.8 | 12.9 | 0.00 | 0.00 | 0.00 | 56 | 1018.2 |
| 20260906174603 | 26 | 0 | 6.4 | 12.9 | 0.00 | 0.00 | 0.00 | 54 | 1018.5 |
| 20260906173603 | 26 | 45 | 4.8 | 9.7 | 0.00 | 0.00 | 0.00 | 54 | 1018.7 |
| 20260906172603 | 26 | 0 | 3.2 | 8.0 | 0.00 | 0.00 | 0.00 | 57 | 1018.8 |
| 20260906171603 | 25 | 0 | 1.6 | 4.8 | 0.00 | 0.00 | 0.00 | 59 | 1018.6 |
| 20260906170603 | 25 | 45 | 3.2 | 6.4 | 0.00 | 0.00 | 0.00 | 59 | 1018.8 |
| 20260906165603 | 24 | 23 | 6.4 | 12.9 | 0.00 | 0.00 | 0.00 | 61 | 1018.6 |
| 20260906164603 | 23 | 270 | 3.2 | 8.0 | 0.00 | 0.00 | 0.00 | 63 | 1018.8 |
| 20260906163603 | 23 | 23 | 3.2 | 8.0 | 0.00 | 0.00 | 0.00 | 64 | 1018.7 |
| 20260906162623 | 22 | 338 | 3.2 | 6.4 | 0.00 | 0.00 | 0.00 | 66 | 1018.5 |
| 20260906161603 | 22 | 338 | 1.6 | 9.7 | 0.00 | 0.00 | 0.00 | 66 | 1018.7 |
| 20260906160603 | 22 | 0 | 3.2 | 8.0 | 0.00 | 0.00 | 0.00 | 66 | 1018.6 |
| 20260906155603 | 22 | 0 | 4.8 | 8.0 | 0.00 | 0.00 | 0.00 | 68 | 1018.4 |
| 20260906154603 | 21 | 0 | 3.2 | 8.0 | 0.00 | 0.00 | 0.00 | 69 | 1018.5 |
| 20260906153603 | 21 | 23 | 3.2 | 8.0 | 0.00 | 0.00 | 0.00 | 72 | 1018.7 |
| 20260906152603 | 20 | 0 | 4.8 | 11.3 | 0.00 | 0.00 | 0.00 | 74 | 1018.4 |
| 20260906151603 | 20 | 45 | 4.8 | 9.7 | 0.00 | 0.00 | 0.00 | 75 | 1018.3 |
| 20260906150603 | 19 | 0 | 3.2 | 9.7 | 0.00 | 0.00 | 0.00 | 77 | 1018.6 |
| 20260906145603 | 18 | 23 | 6.4 | 8.0 | 0.00 | 0.00 | 0.00 | 80 | 1018.1 |
| 20260906144603 | 18 | 338 | 4.8 | 8.0 | 0.00 | 0.00 | 0.00 | 80 | 1018.4 |
| 20260906143603 | 18 | 338 | 4.8 | 8.0 | 0.00 | 0.00 | 0.00 | 79 | 1018.4 |
| 20260906142603 | 18 | 0 | 4.8 | 8.0 | 0.00 | 0.00 | 0.00 | 79 | 1018.5 |
| 20260906141603 | 18 | 315 | 4.8 | 8.0 | 0.00 | 0.00 | 0.00 | 80 | 1018.8 |
| 20260906140623 | 18 | 338 | 6.4 | 11.3 | 0.00 | 0.00 | 0.00 | 79 | 1018.5 |
| 20260906135623 | 17 | 293 | 1.6 | 4.8 | 0.00 | 0.00 | 0.00 | 79 | 1018.3 |
| 20260906134603 | 17 | 0.0 | 3.2 | 0.00 | 0.00 | 0.00 | 79 | 1018.2 | |
| 20260906133603 | 16 | 225 | 1.6 | 4.8 | 0.00 | 0.00 | 0.00 | 79 | 1018.2 |
| 20260906132603 | 16 | 0.0 | 3.2 | 0.00 | 0.00 | 0.00 | 79 | 1018.1 | |
| 20260906131603 | 16 | 248 | 1.6 | 3.2 | 0.00 | 0.00 | 0.00 | 79 | 1018.5 |
| 20260906130603 | 16 | 225 | 1.6 | 3.2 | 0.00 | 0.00 | 0.00 | 78 | 1018.3 |
| 20260906125603 | 16 | 225 | 1.6 | 3.2 | 0.00 | 0.00 | 0.00 | 77 | 1018.3 |
| 20260906124643 | 16 | 0.0 | 0.0 | 0.00 | 0.00 | 0.00 | 77 | 1018.4 | |
| 20260906123603 | 16 | 0.0 | 3.2 | 0.00 | 0.00 | 0.00 | 78 | 1018.1 | |
| 20260906122603 | 16 | 225 | 1.6 | 3.2 | 0.00 | 0.00 | 0.00 | 80 | 1018.2 |
| 20260906121603 | 16 | 0.0 | 0.0 | 0.00 | 0.00 | 0.00 | 78 | 1018.3 | |
| 20260906120623 | 16 | 0.0 | 0.0 | 0.00 | 0.00 | 0.00 | 77 | 1018.2 | |
| 20260906115603 | 16 | 0.0 | 0.0 | 0.00 | 0.00 | 0.00 | 76 | 1018.2 | |
| 20260906114623 | 16 | 0.0 | 0.0 | 0.00 | 0.00 | 0.00 | 75 | 1018.9 | |
| 20260906113603 | 16 | 0.0 | 3.2 | 0.00 | 0.00 | 0.00 | 76 | 1019.0 | |
| 20260906112603 | 16 | 0.0 | 1.6 | 0.00 | 0.00 | 0.00 | 75 | 1019.0 | |
| 20260906111603 | 16 | 0.0 | 3.2 | 0.00 | 0.00 | 0.00 | 75 | 1019.3 | |
| 20260906110603 | 17 | 0.0 | 3.2 | 0.00 | 0.00 | 0.00 | 74 | 1019.3 | |
| 20260906105623 | 17 | 225 | 1.6 | 3.2 | 0.00 | 0.00 | 0.00 | 74 | 1019.4 |
| 20260906104603 | 17 | 225 | 1.6 | 3.2 | 0.00 | 0.00 | 0.00 | 74 | 1019.6 |
| 20260906103603 | 17 | 0.0 | 1.6 | 0.00 | 0.00 | 0.00 | 73 | 1019.7 | |
| 20260906102603 | 17 | 0.0 | 0.0 | 0.00 | 0.00 | 0.00 | 73 | 1019.7 | |
| 20260906101602 | 17 | 0.0 | 0.0 | 0.00 | 0.00 | 0.00 | 73 | 1019.7 | |
| 20260906100602 | 17 | 0.0 | 0.0 | 0.00 | 0.00 | 0.00 | 73 | 1019.4 | |
| 20260906095603 | 17 | 0.0 | 0.0 | 0.00 | 0.00 | 0.00 | 72 | 1019.4 | |
| 20260906094622 | 17 | 0.0 | 0.0 | 0.00 | 0.00 | 0.00 | 71 | 1019.3 | |
| 20260906093603 | 18 | 0.0 | 0.0 | 0.00 | 0.00 | 0.00 | 70 | 1019.6 | |
| 20260906092602 | 18 | 0.0 | 0.0 | 0.00 | 0.00 | 0.00 | 69 | 1019.4 | |
| 20260906091602 | 18 | 0.0 | 0.0 | 0.00 | 0.00 | 0.00 | 68 | 1019.1 | |
| 20260906090622 | 18 | 0.0 | 1.6 | 0.00 | 0.00 | 0.00 | 66 | 1018.8 | |
| 20260906085602 | 18 | 0 | 1.6 | 3.2 | 0.00 | 0.00 | 0.00 | 64 | 1018.6 |
| 20260906084603 | 18 | 315 | 1.6 | 4.8 | 0.00 | 0.00 | 0.00 | 62 | 1018.6 |
| 20260906083623 | 19 | 0 | 3.2 | 4.8 | 0.00 | 0.00 | 0.00 | 60 | 1018.6 |
| 20260906082602 | 19 | 23 | 3.2 | 4.8 | 0.00 | 0.00 | 0.00 | 58 | 1018.9 |
| 20260906081623 | 20 | 338 | 8.0 | 8.0 | 0.00 | 0.00 | 0.00 | 55 | 1018.9 |
| 20260906080602 | 20 | 23 | 4.8 | 8.0 | 0.00 | 0.00 | 0.00 | 54 | 1019.1 |
| 20260906075602 | 20 | 0 | 4.8 | 8.0 | 0.00 | 0.00 | 0.00 | 52 | 1019.2 |
| 20260906074602 | 20 | 315 | 4.8 | 6.4 | 0.00 | 0.00 | 0.00 | 51 | 1018.7 |
| 20260906073602 | 20 | 0.0 | 0.0 | 0.00 | 0.00 | 0.00 | 51 | 1018.7 | |
| 20260906072602 | 20 | 0.0 | 0.0 | 0.00 | 0.00 | 0.00 | 50 | 1018.7 | |
| 20260906071602 | 21 | 0.0 | 0.0 | 0.00 | 0.00 | 0.00 | 48 | 1019.0 | |
| 20260906070602 | 21 | 0.0 | 0.0 | 0.00 | 0.00 | 0.00 | 48 | 1019.2 | |
| 20260906065603 | 21 | 0.0 | 0.0 | 0.00 | 0.00 | 0.00 | 48 | 1019.1 | |
| 20260906064602 | 21 | 0.0 | 0.0 | 0.00 | 0.00 | 0.00 | 48 | 1018.9 | |
| 20260906063602 | 21 | 0.0 | 0.0 | 0.00 | 0.00 | 0.00 | 47 | 1018.9 | |
| 20260906062602 | 21 | 0.0 | 1.6 | 0.00 | 0.00 | 0.00 | 47 | 1018.8 | |
| 20260906061602 | 21 | 0.0 | 1.6 | 0.00 | 0.00 | 0.00 | 48 | 1018.7 | |
| 20260906060602 | 22 | 0 | 1.6 | 6.4 | 0.00 | 0.00 | 0.00 | 47 | 1018.4 |
| 20260906055602 | 22 | 135 | 3.2 | 4.8 | 0.00 | 0.00 | 0.00 | 44 | 1018.5 |
| 20260906054601 | 22 | 0.0 | 3.2 | 0.00 | 0.00 | 0.00 | 43 | 1018.9 | |
| 20260906053601 | 22 | 135 | 1.6 | 3.2 | 0.00 | 0.00 | 0.00 | 43 | 1019.1 |
| 20260906052601 | 22 | 0.0 | 1.6 | 0.00 | 0.00 | 0.00 | 42 | 1019.2 | |
| 20260906051602 | 22 | 113 | 3.2 | 4.8 | 0.00 | 0.00 | 0.00 | 43 | 1019.4 |
| 20260906050602 | 22 | 113 | 4.8 | 8.0 | 0.00 | 0.00 | 0.00 | 44 | 1019.2 |
| 20260906045601 | 22 | 0.0 | 1.6 | 0.00 | 0.00 | 0.00 | 43 | 1019.0 | |
| 20260906044601 | 23 | 225 | 1.6 | 4.8 | 0.00 | 0.00 | 0.00 | 43 | 1018.8 |
| 20260906043622 | 23 | 0.0 | 1.6 | 0.00 | 0.00 | 0.00 | 41 | 1018.8 | |
| 20260906042601 | 23 | 113 | 1.6 | 4.8 | 0.00 | 0.00 | 0.00 | 41 | 1018.7 |
| 20260906041602 | 23 | 0.0 | 1.6 | 0.00 | 0.00 | 0.00 | 40 | 1018.0 | |
| 20260906040602 | 23 | 113 | 1.6 | 4.8 | 0.00 | 0.00 | 0.00 | 40 | 1017.8 |
| 20260906035602 | 23 | 0.0 | 0.0 | 0.00 | 0.00 | 0.00 | 40 | 1017.6 | |
| 20260906034621 | 23 | 0.0 | 0.0 | 0.00 | 0.00 | 0.00 | 40 | 1016.7 | |
| 20260906033602 | 23 | 0.0 | 3.2 | 0.00 | 0.00 | 0.00 | 39 | 1016.7 | |
| 20260906032602 | 24 | 45 | 3.2 | 6.4 | 0.00 | 0.00 | 0.00 | 38 | 1016.8 |
| 20260906031601 | 25 | 0.0 | 3.2 | 0.00 | 0.00 | 0.00 | 37 | 1015.6 | |
| 20260906030622 | 25 | 0 | 1.6 | 3.2 | 0.00 | 0.00 | 0.00 | 36 | 1015.4 |
| 20260906025602 | 25 | 23 | 4.8 | 6.4 | 0.00 | 0.00 | 0.00 | 36 | 1015.2 |
| 20260906024602 | 25 | 23 | 3.2 | 6.4 | 0.00 | 0.00 | 0.00 | 36 | 1014.0 |
| 20260906023601 | 25 | 68 | 1.6 | 4.8 | 0.00 | 0.00 | 0.00 | 35 | 1014.2 |
| 20260906022601 | 26 | 45 | 3.2 | 6.4 | 0.00 | 0.00 | 0.00 | 34 | 1014.2 |
| 20260906021601 | 26 | 225 | 1.6 | 3.2 | 0.00 | 0.00 | 0.00 | 34 | 1013.9 |
| 20260906020601 | 26 | 0.0 | 3.2 | 0.00 | 0.00 | 0.00 | 33 | 1013.8 | |
| 20260906015622 | 27 | 0.0 | 0.0 | 0.00 | 0.00 | 0.00 | 32 | 1013.8 | |
| 20260906014601 | 27 | 270 | 1.6 | 3.2 | 0.00 | 0.00 | 0.00 | 31 | 1013.8 |
| 20260906013601 | 27 | 293 | 1.6 | 4.8 | 0.00 | 0.00 | 0.00 | 31 | 1013.6 |
| 20260906012602 | 27 | 293 | 3.2 | 6.4 | 0.00 | 0.00 | 0.00 | 30 | 1013.5 |
| 20260906011601 | 28 | 315 | 6.4 | 12.9 | 0.00 | 0.00 | 0.00 | 29 | 1013.6 |
| 20260906010601 | 28 | 315 | 6.4 | 12.9 | 0.00 | 0.00 | 0.00 | 29 | 1013.5 |
| 20260906005602 | 29 | 293 | 6.4 | 9.7 | 0.00 | 0.00 | 0.00 | 28 | 1013.4 |
| 20260906004601 | 29 | 293 | 3.2 | 6.4 | 0.00 | 0.00 | 0.00 | 28 | 1013.8 |
| 20260906003621 | 29 | 315 | 8.0 | 12.9 | 0.00 | 0.00 | 0.00 | 27 | 1013.8 |
| 20260906002602 | 30 | 315 | 11.3 | 16.1 | 0.00 | 0.00 | 0.00 | 26 | 1014.0 |
| 20260906001602 | 30 | 338 | 12.9 | 20.9 | 0.00 | 0.00 | 0.00 | 27 | 1014.3 |
| 20260906000601 | 30 | 315 | 14.5 | 24.1 | 0.00 | 0.00 | 0.00 | 27 | 1014.4 |
| 20260905235601 | 30 | 338 | 3.2 | 4.8 | 0.00 | 0.00 | 0.00 | 28 | 1014.3 |
| 20260905234601 | 31 | 315 | 3.2 | 3.2 | 0.00 | 0.00 | 0.00 | 27 | 1014.3 |
| 20260905233601 | 31 | 338 | 4.8 | 8.0 | 0.00 | 0.00 | 0.00 | 26 | 1014.3 |
| 20260905232601 | 32 | 338 | 4.8 | 6.4 | 0.00 | 0.00 | 0.00 | 25 | 1014.4 |
| 20260905231601 | 32 | 0 | 4.8 | 8.0 | 0.00 | 0.00 | 0.00 | 23 | 1014.7 |
| 20260905230601 | 33 | 0 | 8.0 | 12.9 | 0.00 | 0.00 | 0.00 | 23 | 1014.9 |
| 20260905225601 | 34 | 338 | 6.4 | 11.3 | 0.00 | 0.00 | 0.00 | 21 | 1015.1 |
| 20260905224601 | 34 | 338 | 6.4 | 14.5 | 0.00 | 0.00 | 0.00 | 21 | 1015.0 |
| 20260905223601 | 35 | 338 | 6.4 | 14.5 | 0.00 | 0.00 | 0.00 | 19 | 1015.3 |
| 20260905222601 | 35 | 68 | 1.6 | 6.4 | 0.00 | 0.00 | 0.00 | 19 | 1015.3 |
| 20260905221601 | 35 | 90 | 3.2 | 8.0 | 0.00 | 0.00 | 0.00 | 20 | 1015.1 |